createdAt,value
2019-02-22T00:01:17.677Z,19.57
2019-02-22T00:02:24.421Z,19.82
2019-02-22T00:03:28.057Z,18.27
2019-02-22T00:04:31.689Z,19.98
2019-02-22T00:05:35.330Z,20.50
2019-02-22T00:06:38.999Z,20.70
2019-02-22T00:07:42.636Z,18.37
2019-02-22T00:08:46.272Z,19.77
2019-02-22T00:09:49.994Z,20.08
2019-02-22T00:10:56.631Z,20.82
2019-02-22T00:12:00.426Z,20.48
2019-02-22T00:13:04.092Z,17.82
2019-02-22T00:14:08.148Z,17.77
2019-02-22T00:15:11.784Z,16.73
2019-02-22T00:16:15.423Z,16.55
2019-02-22T00:17:19.151Z,16.48
2019-02-22T00:18:22.802Z,16.97
2019-02-22T00:19:26.367Z,15.20
2019-02-22T00:20:30.011Z,16.45
2019-02-22T00:21:33.649Z,14.87
2019-02-22T00:22:37.252Z,16.05
2019-02-22T00:23:40.898Z,14.65
2019-02-22T00:24:44.546Z,15.63
2019-02-22T00:25:48.183Z,15.80
2019-02-22T00:26:51.824Z,14.38
2019-02-22T00:27:55.467Z,14.93
2019-02-22T00:28:59.115Z,14.98
2019-02-22T00:30:02.745Z,14.78
2019-02-22T00:31:06.467Z,14.90
2019-02-22T00:32:10.149Z,15.53
2019-02-22T00:33:14.209Z,15.58
2019-02-22T00:34:17.873Z,16.75
2019-02-22T00:35:21.487Z,17.55
2019-02-22T00:36:25.119Z,18.05
2019-02-22T00:37:28.757Z,18.25
2019-02-22T00:38:32.426Z,18.02
2019-02-22T00:39:36.053Z,17.57
2019-02-22T00:40:39.686Z,19.87
2019-02-22T00:41:43.248Z,17.95
2019-02-22T00:42:46.899Z,16.82
2019-02-22T00:43:50.604Z,16.37
2019-02-22T00:44:54.187Z,16.00
2019-02-22T00:45:57.816Z,16.75
2019-02-22T00:47:01.381Z,16.05
2019-02-22T00:48:05.019Z,15.50
2019-02-22T00:49:08.698Z,15.43
2019-02-22T00:50:12.342Z,14.05
2019-02-22T00:51:16.000Z,13.40
2019-02-22T00:52:19.642Z,17.25
2019-02-22T00:53:23.563Z,16.75
2019-02-22T00:54:27.234Z,17.90
2019-02-22T00:55:30.867Z,16.62
2019-02-22T00:56:34.583Z,17.32
2019-02-22T00:57:38.227Z,16.40
2019-02-22T00:58:41.863Z,17.85
2019-02-22T00:59:45.459Z,16.05
2019-02-22T01:00:49.097Z,15.25
2019-02-22T01:01:52.731Z,15.98
2019-02-22T01:02:56.386Z,15.00
2019-02-22T01:04:00.014Z,14.58
2019-02-22T01:05:03.688Z,16.75
2019-02-22T01:06:07.260Z,16.27
2019-02-22T01:07:10.899Z,16.62
2019-02-22T01:08:14.567Z,16.07
2019-02-22T01:09:18.220Z,17.00
2019-02-22T01:10:30.813Z,16.70
2019-02-22T01:11:27.235Z,15.53
2019-02-22T01:12:30.874Z,16.65
2019-02-22T01:13:34.595Z,14.03
2019-02-22T01:14:38.549Z,14.38
2019-02-22T01:15:42.596Z,14.00
2019-02-22T01:16:46.231Z,15.13
2019-02-22T01:17:49.864Z,14.30
2019-02-22T01:18:53.446Z,13.03
2019-02-22T01:19:57.080Z,13.53
2019-02-22T01:21:00.744Z,14.35
2019-02-22T01:22:04.371Z,14.30
2019-02-22T01:23:08.006Z,13.40
2019-02-22T01:24:11.992Z,14.35
2019-02-22T01:25:15.630Z,13.40
2019-02-22T01:26:19.300Z,14.15
2019-02-22T01:27:22.936Z,13.62
2019-02-22T01:28:26.607Z,13.25
2019-02-22T01:29:30.205Z,13.18
2019-02-22T01:30:33.780Z,13.38
2019-02-22T01:31:37.449Z,13.62
2019-02-22T01:32:41.172Z,13.75
2019-02-22T01:33:44.741Z,13.03
2019-02-22T01:34:48.382Z,13.62
2019-02-22T01:35:52.014Z,14.10
2019-02-22T01:36:55.620Z,14.03
2019-02-22T01:37:59.255Z,13.28
2019-02-22T01:39:04.532Z,13.15
2019-02-22T01:40:10.449Z,14.23
2019-02-22T01:41:14.081Z,14.07
2019-02-22T01:42:17.754Z,14.53
2019-02-22T01:43:21.323Z,14.25
2019-02-22T01:44:25.033Z,13.72
2019-02-22T01:45:29.287Z,14.47
2019-02-22T01:46:33.219Z,16.02
2019-02-22T01:47:36.893Z,15.85
2019-02-22T01:48:40.525Z,16.93
2019-02-22T01:49:44.090Z,16.27
2019-02-22T01:50:47.724Z,16.45
2019-02-22T01:51:51.364Z,16.20
2019-02-22T01:52:55.032Z,16.55
2019-02-22T01:53:58.986Z,16.32
2019-02-22T01:55:02.629Z,16.05
2019-02-22T01:56:06.194Z,16.25
2019-02-22T01:57:09.843Z,16.75
2019-02-22T01:58:13.501Z,17.67
2019-02-22T01:59:17.148Z,18.30
2019-02-22T02:00:20.867Z,16.55
2019-02-22T02:01:24.495Z,17.55
2019-02-22T02:02:28.203Z,17.23
2019-02-22T02:03:31.900Z,17.05
2019-02-22T02:04:35.549Z,16.73
2019-02-22T02:05:39.183Z,17.57
2019-02-22T02:06:42.832Z,15.35
2019-02-22T02:07:46.469Z,15.53
2019-02-22T02:08:50.142Z,15.35
2019-02-22T02:09:53.776Z,14.30
2019-02-22T02:10:57.441Z,15.20
2019-02-22T02:12:02.082Z,15.25
2019-02-22T02:13:05.798Z,14.50
2019-02-22T02:14:09.536Z,15.63
2019-02-22T02:15:13.439Z,14.30
2019-02-22T02:16:17.097Z,14.45
2019-02-22T02:17:21.057Z,16.23
2019-02-22T02:18:24.691Z,15.45
2019-02-22T02:19:28.382Z,16.20
2019-02-22T02:20:32.430Z,15.08
2019-02-22T02:21:36.115Z,15.18
2019-02-22T02:22:39.751Z,15.50
2019-02-22T02:23:43.390Z,15.23
2019-02-22T02:24:47.073Z,13.88
2019-02-22T02:25:50.729Z,15.32
2019-02-22T02:26:54.370Z,14.93
2019-02-22T02:27:58.009Z,14.25
2019-02-22T02:29:01.724Z,15.65
2019-02-22T02:30:07.958Z,16.12
2019-02-22T02:31:11.588Z,16.17
2019-02-22T02:32:15.238Z,15.50
2019-02-22T02:33:19.147Z,15.55
2019-02-22T02:34:22.757Z,15.58
2019-02-22T02:35:26.850Z,14.40
2019-02-22T02:36:30.497Z,13.98
2019-02-22T02:37:34.137Z,12.75
2019-02-22T02:38:38.104Z,13.53
2019-02-22T02:39:41.733Z,14.00
2019-02-22T02:40:45.424Z,14.20
2019-02-22T02:41:49.204Z,14.10
2019-02-22T02:42:52.886Z,14.47
2019-02-22T02:43:56.638Z,14.23
2019-02-22T02:45:00.558Z,13.95
2019-02-22T02:46:04.234Z,13.90
2019-02-22T02:47:07.877Z,13.32
2019-02-22T02:48:11.524Z,12.95
2019-02-22T02:49:15.156Z,12.60
2019-02-22T02:50:18.796Z,13.55
2019-02-22T02:51:22.480Z,14.28
2019-02-22T02:52:26.123Z,13.53
2019-02-22T02:53:29.855Z,14.53
2019-02-22T02:54:33.514Z,14.33
2019-02-22T02:55:37.152Z,16.15
2019-02-22T02:56:40.827Z,15.58
2019-02-22T02:57:44.465Z,14.85
2019-02-22T02:58:48.097Z,15.13
2019-02-22T02:59:51.741Z,15.90
2019-02-22T03:00:55.385Z,14.80
2019-02-22T03:01:59.227Z,15.13
2019-02-22T03:03:02.874Z,15.35
2019-02-22T03:04:06.511Z,15.35
2019-02-22T03:05:10.141Z,16.35
2019-02-22T03:06:21.393Z,15.25
2019-02-22T03:07:26.803Z,15.98
2019-02-22T03:08:32.078Z,15.90
2019-02-22T03:09:35.661Z,16.25
2019-02-22T03:10:39.301Z,16.62
2019-02-22T03:11:42.947Z,15.50
2019-02-22T03:12:46.620Z,16.00
2019-02-22T03:13:50.258Z,16.50
2019-02-22T03:14:53.908Z,18.02
2019-02-22T03:15:57.549Z,17.00
2019-02-22T03:17:01.196Z,15.93
2019-02-22T03:18:04.867Z,16.37
2019-02-22T03:19:08.505Z,17.05
2019-02-22T03:20:12.333Z,17.42
2019-02-22T03:21:15.973Z,16.90
2019-02-22T03:22:19.612Z,17.23
2019-02-22T03:23:23.650Z,17.45
2019-02-22T03:24:27.660Z,17.27
2019-02-22T03:25:31.304Z,17.52
2019-02-22T03:26:34.945Z,17.12
2019-02-22T03:27:38.582Z,17.35
2019-02-22T03:28:42.298Z,16.10
2019-02-22T03:29:45.966Z,16.10
2019-02-22T03:30:49.591Z,17.85
2019-02-22T03:31:53.238Z,17.40
2019-02-22T03:32:56.888Z,17.25
2019-02-22T03:34:00.567Z,17.67
2019-02-22T03:35:05.040Z,17.82
2019-02-22T03:36:08.742Z,18.23
2019-02-22T03:37:12.311Z,17.12
2019-02-22T03:38:15.952Z,17.05
2019-02-22T03:39:19.627Z,17.95
2019-02-22T03:40:23.347Z,16.82
2019-02-22T03:41:32.961Z,17.27
2019-02-22T03:42:32.358Z,16.40
2019-02-22T03:43:35.952Z,16.85
2019-02-22T03:44:39.620Z,16.70
2019-02-22T03:45:43.257Z,16.90
2019-02-22T03:46:46.824Z,17.98
2019-02-22T03:47:50.473Z,18.05
2019-02-22T03:48:54.105Z,17.82
2019-02-22T03:49:58.179Z,16.05
2019-02-22T03:51:01.821Z,17.95
2019-02-22T03:52:19.165Z,17.10
2019-02-22T03:53:27.132Z,16.90
2019-02-22T03:54:30.769Z,16.93
2019-02-22T03:55:34.439Z,17.77
2019-02-22T03:56:38.156Z,17.37
2019-02-22T03:57:41.800Z,16.80
2019-02-22T03:58:45.448Z,17.25
2019-02-22T03:59:51.236Z,17.05
2019-02-22T04:00:54.662Z,16.93
2019-02-22T04:01:58.290Z,17.57
2019-02-22T04:03:01.929Z,17.35
2019-02-22T04:04:05.679Z,17.52
2019-02-22T04:05:09.423Z,17.90
2019-02-22T04:06:13.102Z,18.12
2019-02-22T04:07:16.880Z,17.70
2019-02-22T04:08:20.529Z,18.30
2019-02-22T04:09:24.473Z,17.77
2019-02-22T04:10:28.055Z,18.05
2019-02-22T04:11:31.703Z,18.42
2019-02-22T04:12:35.390Z,17.02
2019-02-22T04:13:39.039Z,17.42
2019-02-22T04:14:43.149Z,17.67
2019-02-22T04:15:46.866Z,18.02
2019-02-22T04:16:50.477Z,18.37
2019-02-22T04:17:54.101Z,18.50
2019-02-22T04:18:57.695Z,18.05
2019-02-22T04:20:01.452Z,18.37
2019-02-22T04:21:05.102Z,17.87
2019-02-22T04:22:08.780Z,18.80
2019-02-22T04:23:12.430Z,20.35
2019-02-22T04:24:16.383Z,20.77
2019-02-22T04:25:20.027Z,19.62
2019-02-22T04:26:23.673Z,25.25
2019-02-22T04:27:27.342Z,18.90
2019-02-22T04:28:30.983Z,19.50
2019-02-22T04:29:34.628Z,22.90
2019-02-22T04:30:38.275Z,17.57
2019-02-22T04:31:41.915Z,17.30
2019-02-22T04:32:45.577Z,16.50
2019-02-22T04:33:49.218Z,16.82
2019-02-22T04:34:52.945Z,17.10
2019-02-22T04:35:56.788Z,15.80
2019-02-22T04:37:00.360Z,18.23
2019-02-22T04:38:04.031Z,18.35
2019-02-22T04:39:07.872Z,19.17
2019-02-22T04:40:11.586Z,19.32
2019-02-22T04:41:15.227Z,18.75
2019-02-22T04:42:18.860Z,16.05
2019-02-22T04:43:22.535Z,14.10
2019-02-22T04:44:26.186Z,14.53
2019-02-22T04:45:29.919Z,15.10
2019-02-22T04:46:33.984Z,13.13
2019-02-22T04:47:37.630Z,14.05
2019-02-22T04:48:41.310Z,13.30
2019-02-22T04:49:44.908Z,17.37
2019-02-22T04:50:48.954Z,17.32
2019-02-22T04:51:52.597Z,18.50
2019-02-22T04:52:56.167Z,17.52
2019-02-22T04:53:59.767Z,19.00
2019-02-22T04:55:03.796Z,17.48
2019-02-22T04:56:07.451Z,17.55
2019-02-22T04:57:11.022Z,16.15
2019-02-22T04:58:14.672Z,15.90
2019-02-22T04:59:18.390Z,16.70
2019-02-22T05:00:22.035Z,13.88
2019-02-22T05:01:25.697Z,14.50
2019-02-22T05:02:29.332Z,15.48
2019-02-22T05:03:32.971Z,14.60
2019-02-22T05:04:36.706Z,12.78
2019-02-22T05:05:40.339Z,12.58
2019-02-22T05:06:43.985Z,13.95
2019-02-22T05:07:47.540Z,19.95
2019-02-22T05:08:51.179Z,17.70
2019-02-22T05:09:54.855Z,23.00
2019-02-22T05:10:58.501Z,17.00
2019-02-22T05:12:10.477Z,14.78
2019-02-22T05:13:07.438Z,15.48
2019-02-22T05:14:11.087Z,15.95
2019-02-22T05:15:14.802Z,15.80
2019-02-22T05:16:18.483Z,16.60
2019-02-22T05:17:22.477Z,14.68
2019-02-22T05:18:26.045Z,14.55
2019-02-22T05:19:29.690Z,15.95
2019-02-22T05:20:33.360Z,15.55
2019-02-22T05:21:37.001Z,15.03
2019-02-22T05:22:40.639Z,14.87
2019-02-22T05:23:44.343Z,14.40
2019-02-22T05:24:47.983Z,15.25
2019-02-22T05:25:51.666Z,15.98
2019-02-22T05:26:55.298Z,16.87
2019-02-22T05:27:58.947Z,16.65
2019-02-22T05:29:02.580Z,17.30
2019-02-22T05:30:08.128Z,16.15
2019-02-22T05:31:11.723Z,17.40
2019-02-22T05:32:15.778Z,19.00
2019-02-22T05:33:19.400Z,17.65
2019-02-22T05:34:23.031Z,18.27
2019-02-22T05:35:26.743Z,18.70
2019-02-22T05:36:30.803Z,21.60
2019-02-22T05:37:34.803Z,26.87
2019-02-22T05:38:38.538Z,25.43
2019-02-22T05:39:42.211Z,23.92
2019-02-22T05:40:45.823Z,24.52
2019-02-22T05:41:49.421Z,23.67
2019-02-22T05:42:53.065Z,23.65
2019-02-22T05:43:56.709Z,23.62
2019-02-22T05:45:00.449Z,24.47
2019-02-22T05:46:04.543Z,23.60
2019-02-22T05:47:08.189Z,22.58
2019-02-22T05:48:12.134Z,23.77
2019-02-22T05:49:15.800Z,23.25
2019-02-22T05:50:19.367Z,24.00
2019-02-22T05:51:23.018Z,23.98
2019-02-22T05:52:26.688Z,24.75
2019-02-22T05:53:30.482Z,24.40
2019-02-22T05:54:34.153Z,27.05
2019-02-22T05:55:37.788Z,27.85
2019-02-22T05:56:41.359Z,28.62
2019-02-22T05:57:45.031Z,26.82
2019-02-22T05:58:48.715Z,28.90
2019-02-22T05:59:52.699Z,27.48
2019-02-22T06:00:56.338Z,29.90
2019-02-22T06:02:00.020Z,31.65
2019-02-22T06:03:03.621Z,30.37
2019-02-22T06:04:07.271Z,30.80
2019-02-22T06:05:10.912Z,29.90
2019-02-22T06:06:14.557Z,28.38
2019-02-22T06:07:18.194Z,27.07
2019-02-22T06:08:21.861Z,25.55
2019-02-22T06:09:25.504Z,24.55
2019-02-22T06:10:29.142Z,24.00
2019-02-22T06:11:32.777Z,21.07
2019-02-22T06:12:36.345Z,23.02
2019-02-22T06:13:40.044Z,24.02
2019-02-22T06:14:43.682Z,22.85
2019-02-22T06:15:47.258Z,21.82
2019-02-22T06:16:50.945Z,22.85
2019-02-22T06:17:54.574Z,24.18
2019-02-22T06:18:58.239Z,22.30
2019-02-22T06:20:01.868Z,25.82
2019-02-22T06:21:05.506Z,26.65
2019-02-22T06:22:09.149Z,25.60
2019-02-22T06:23:12.766Z,25.43
2019-02-22T06:24:16.429Z,22.95
2019-02-22T06:25:20.075Z,25.77
2019-02-22T06:26:24.094Z,25.02
2019-02-22T06:27:27.710Z,29.23
2019-02-22T06:28:31.348Z,27.93
2019-02-22T06:29:35.351Z,28.73
2019-02-22T06:30:39.020Z,25.72
2019-02-22T06:31:42.662Z,26.55
2019-02-22T06:32:46.297Z,25.27
2019-02-22T06:33:49.941Z,24.37
2019-02-22T06:34:53.603Z,22.37
2019-02-22T06:35:57.284Z,23.02
2019-02-22T06:37:02.323Z,22.62
2019-02-22T06:38:06.201Z,21.55
2019-02-22T06:39:09.850Z,23.75
2019-02-22T06:40:13.526Z,22.07
2019-02-22T06:41:17.166Z,22.45
2019-02-22T06:42:20.844Z,21.97
2019-02-22T06:43:24.568Z,22.58
2019-02-22T06:44:28.131Z,26.50
2019-02-22T06:45:31.792Z,26.33
2019-02-22T06:46:35.368Z,24.77
2019-02-22T06:47:39.006Z,26.40
2019-02-22T06:48:42.707Z,24.43
2019-02-22T06:49:46.331Z,25.48
2019-02-22T06:50:50.012Z,24.60
2019-02-22T06:51:53.648Z,24.85
2019-02-22T06:52:57.284Z,27.25
2019-02-22T06:54:00.998Z,26.97
2019-02-22T06:55:05.835Z,27.30
2019-02-22T06:56:09.506Z,26.07
2019-02-22T06:57:13.428Z,25.70
2019-02-22T06:58:16.994Z,24.82
2019-02-22T06:59:20.638Z,25.62
2019-02-22T07:00:24.274Z,28.92
2019-02-22T07:01:28.454Z,23.90
2019-02-22T07:02:32.087Z,24.43
2019-02-22T07:03:35.751Z,24.35
2019-02-22T07:04:39.401Z,26.27
2019-02-22T07:05:43.067Z,27.32
2019-02-22T07:06:47.061Z,27.20
2019-02-22T07:07:50.842Z,27.37
2019-02-22T07:08:54.469Z,26.95
2019-02-22T07:09:58.116Z,26.02
2019-02-22T07:11:03.397Z,26.93
2019-02-22T07:12:11.724Z,26.87
2019-02-22T07:13:15.363Z,28.00
2019-02-22T07:14:19.021Z,28.90
2019-02-22T07:15:22.642Z,35.38
2019-02-22T07:16:26.290Z,35.35
2019-02-22T07:17:29.961Z,33.92
2019-02-22T07:18:33.603Z,33.63
2019-02-22T07:19:37.232Z,49.00
2019-02-22T07:20:40.946Z,37.67
2019-02-22T07:21:52.735Z,41.58
2019-02-22T07:22:49.915Z,38.50
2019-02-22T07:23:53.483Z,43.98
2019-02-22T07:24:57.060Z,42.05
2019-02-22T07:26:00.733Z,36.93
2019-02-22T07:27:04.366Z,35.70
2019-02-22T07:28:08.004Z,33.08
2019-02-22T07:29:11.654Z,32.63
2019-02-22T07:30:15.301Z,32.75
2019-02-22T07:31:18.978Z,31.23
2019-02-22T07:32:22.815Z,33.48
2019-02-22T07:33:26.466Z,33.40
2019-02-22T07:34:30.472Z,33.10
2019-02-22T07:35:34.127Z,34.38
2019-02-22T07:36:37.788Z,34.38
2019-02-22T07:37:41.520Z,34.55
2019-02-22T07:38:45.163Z,38.60
2019-02-22T07:39:48.808Z,37.48
2019-02-22T07:40:52.448Z,37.78
2019-02-22T07:41:56.199Z,35.55
2019-02-22T07:43:07.795Z,36.70
2019-02-22T07:44:06.383Z,35.25
2019-02-22T07:45:11.227Z,34.83
2019-02-22T07:46:14.945Z,34.03
2019-02-22T07:47:18.545Z,36.08
2019-02-22T07:48:22.189Z,37.00
2019-02-22T07:49:27.030Z,37.35
2019-02-22T07:50:30.666Z,36.93
2019-02-22T07:51:34.302Z,39.03
2019-02-22T07:52:38.036Z,41.42
2019-02-22T07:53:41.736Z,40.43
2019-02-22T07:54:45.401Z,38.35
2019-02-22T07:55:49.037Z,37.17
2019-02-22T07:56:52.839Z,35.20
2019-02-22T07:57:56.491Z,33.73
2019-02-22T07:59:02.904Z,32.40
2019-02-22T08:00:11.605Z,31.55
2019-02-22T08:01:15.353Z,28.98
2019-02-22T08:02:19.071Z,28.10
2019-02-22T08:03:22.666Z,28.75
2019-02-22T08:04:26.311Z,28.50
2019-02-22T08:05:30.177Z,29.92
2019-02-22T08:06:33.740Z,27.82
2019-02-22T08:07:37.379Z,27.55
2019-02-22T08:08:41.342Z,28.02
2019-02-22T08:09:45.012Z,28.85
2019-02-22T08:10:48.656Z,27.40
2019-02-22T08:11:52.291Z,27.73
2019-02-22T08:12:55.991Z,28.15
2019-02-22T08:13:59.653Z,27.37
2019-02-22T08:15:03.299Z,37.30
2019-02-22T08:16:06.940Z,32.28
2019-02-22T08:17:10.518Z,31.33
2019-02-22T08:18:14.165Z,32.08
2019-02-22T08:19:18.206Z,29.95
2019-02-22T08:20:21.947Z,30.25
2019-02-22T08:21:25.517Z,29.65
2019-02-22T08:22:29.154Z,31.85
2019-02-22T08:23:32.792Z,28.65
2019-02-22T08:24:36.453Z,30.52
2019-02-22T08:25:40.094Z,30.70
2019-02-22T08:26:44.032Z,29.65
2019-02-22T08:27:53.883Z,29.52
2019-02-22T08:28:52.981Z,30.65
2019-02-22T08:29:56.689Z,30.55
2019-02-22T08:31:00.384Z,31.68
2019-02-22T08:32:04.329Z,30.95
2019-02-22T08:33:07.971Z,29.57
2019-02-22T08:34:11.608Z,30.85
2019-02-22T08:35:15.621Z,30.12
2019-02-22T08:36:19.280Z,30.52
2019-02-22T08:37:22.928Z,35.58
2019-02-22T08:38:26.594Z,32.00
2019-02-22T08:39:30.156Z,31.52
2019-02-22T08:40:33.841Z,33.13
2019-02-22T08:41:37.487Z,32.48
2019-02-22T08:42:41.132Z,34.90
2019-02-22T08:44:04.623Z,35.00
2019-02-22T08:45:09.902Z,33.42
2019-02-22T08:46:13.596Z,34.98
2019-02-22T08:47:17.240Z,34.45
2019-02-22T08:48:20.903Z,37.83
2019-02-22T08:49:24.544Z,35.80
2019-02-22T08:50:28.261Z,36.90
2019-02-22T08:51:31.868Z,35.23
2019-02-22T08:52:35.437Z,37.17
2019-02-22T08:53:39.081Z,37.48
2019-02-22T08:54:47.147Z,38.35
2019-02-22T08:55:48.456Z,40.12
2019-02-22T08:56:52.113Z,40.23
2019-02-22T08:57:55.781Z,37.00
2019-02-22T08:58:59.424Z,35.58
2019-02-22T09:00:03.074Z,35.75
2019-02-22T09:01:06.722Z,35.00
2019-02-22T09:02:10.315Z,37.05
2019-02-22T09:03:13.964Z,37.00
2019-02-22T09:04:17.618Z,36.30
2019-02-22T09:05:21.269Z,33.23
2019-02-22T09:06:24.921Z,36.42
2019-02-22T09:07:28.665Z,38.78
2019-02-22T09:08:32.259Z,39.83
2019-02-22T09:09:36.222Z,40.25
2019-02-22T09:10:39.867Z,40.50
2019-02-22T09:11:43.577Z,38.10
2019-02-22T09:12:47.195Z,37.10
2019-02-22T09:13:50.835Z,37.98
2019-02-22T09:14:54.568Z,37.08
2019-02-22T09:15:58.624Z,38.28
2019-02-22T09:17:02.266Z,35.07
2019-02-22T09:18:05.927Z,36.17
2019-02-22T09:19:09.572Z,37.90
2019-02-22T09:20:13.728Z,38.05
2019-02-22T09:21:17.374Z,36.98
2019-02-22T09:22:23.109Z,35.03
2019-02-22T09:23:26.396Z,36.48
2019-02-22T09:24:30.594Z,38.80
2019-02-22T09:25:34.245Z,40.43
2019-02-22T09:26:37.895Z,40.60
2019-02-22T09:27:41.541Z,42.67
2019-02-22T09:28:45.230Z,32.83
2019-02-22T09:29:58.515Z,30.72
2019-02-22T09:30:54.248Z,26.93
2019-02-22T09:31:57.933Z,25.17
2019-02-22T09:33:01.876Z,24.67
2019-02-22T09:34:05.549Z,24.77
2019-02-22T09:35:11.013Z,24.27
2019-02-22T09:36:14.655Z,23.15
2019-02-22T09:37:18.302Z,24.65
2019-02-22T09:38:21.944Z,24.50
2019-02-22T09:39:25.641Z,24.92
2019-02-22T09:40:29.286Z,26.25
2019-02-22T09:41:33.037Z,29.40
2019-02-22T09:42:36.690Z,32.08
2019-02-22T09:43:40.260Z,36.55
2019-02-22T09:44:43.936Z,29.80
2019-02-22T09:45:47.583Z,25.20
2019-02-22T09:46:51.559Z,26.82
2019-02-22T09:47:55.204Z,24.23
2019-02-22T09:48:58.775Z,25.00
2019-02-22T09:50:02.456Z,25.77
2019-02-22T09:51:06.099Z,24.05
2019-02-22T09:52:09.743Z,26.97
2019-02-22T09:53:13.400Z,25.20
2019-02-22T09:54:17.047Z,26.23
2019-02-22T09:55:20.727Z,25.35
2019-02-22T09:56:24.371Z,25.50
2019-02-22T09:57:28.027Z,28.30
2019-02-22T09:58:31.602Z,27.97
2019-02-22T09:59:35.233Z,24.30
2019-02-22T10:00:38.907Z,23.83
2019-02-22T10:01:42.549Z,24.50
2019-02-22T10:02:46.407Z,27.80
2019-02-22T10:03:49.984Z,31.60
2019-02-22T10:04:55.539Z,25.77
2019-02-22T10:05:59.021Z,27.93
2019-02-22T10:07:02.652Z,30.77
2019-02-22T10:08:06.304Z,27.47
2019-02-22T10:09:09.948Z,25.87
2019-02-22T10:10:13.660Z,25.80
2019-02-22T10:11:17.321Z,27.30
2019-02-22T10:12:20.957Z,26.27
2019-02-22T10:13:24.723Z,28.57
2019-02-22T10:14:28.664Z,31.33
2019-02-22T10:15:32.381Z,29.50
2019-02-22T10:16:36.056Z,29.57
2019-02-22T10:17:39.689Z,27.43
2019-02-22T10:18:43.325Z,34.13
2019-02-22T10:19:47.038Z,39.77
2019-02-22T10:20:50.677Z,28.90
2019-02-22T10:21:54.349Z,29.63
2019-02-22T10:22:57.984Z,28.77
2019-02-22T10:24:01.651Z,29.63
2019-02-22T10:25:07.193Z,32.57
2019-02-22T10:26:10.822Z,28.50
2019-02-22T10:27:14.492Z,28.47
2019-02-22T10:28:18.348Z,27.60
2019-02-22T10:29:22.023Z,26.63
2019-02-22T10:30:26.022Z,32.20
2019-02-22T10:31:29.759Z,32.67
2019-02-22T10:32:33.354Z,27.47
2019-02-22T10:33:37.145Z,27.97
2019-02-22T10:34:40.804Z,26.37
2019-02-22T10:35:44.433Z,27.97
2019-02-22T10:36:48.128Z,31.10
2019-02-22T10:37:51.816Z,28.07
2019-02-22T10:38:55.452Z,27.00
2019-02-22T10:39:59.099Z,26.13
2019-02-22T10:41:02.732Z,28.73
2019-02-22T10:42:06.362Z,28.73
2019-02-22T10:43:10.035Z,26.23
2019-02-22T10:44:17.647Z,25.90
2019-02-22T10:45:19.079Z,26.17
2019-02-22T10:46:22.711Z,26.40
2019-02-22T10:47:26.349Z,27.17
2019-02-22T10:48:30.021Z,25.87
2019-02-22T10:49:33.718Z,26.30
2019-02-22T10:50:37.362Z,24.17
2019-02-22T10:51:41.006Z,28.40
2019-02-22T10:52:44.652Z,30.13
2019-02-22T10:53:48.398Z,27.90
2019-02-22T10:54:52.012Z,29.47
2019-02-22T10:55:56.292Z,29.60
2019-02-22T10:56:59.923Z,27.33
2019-02-22T10:58:03.476Z,27.80
2019-02-22T10:59:07.143Z,24.30
2019-02-22T11:00:13.398Z,25.87
2019-02-22T11:01:17.109Z,26.73
2019-02-22T11:02:20.746Z,27.67
2019-02-22T11:03:24.381Z,28.27
2019-02-22T11:04:28.057Z,36.50
2019-02-22T11:05:31.683Z,26.90
2019-02-22T11:06:35.318Z,25.73
2019-02-22T11:07:38.957Z,27.03
2019-02-22T11:08:42.598Z,23.73
2019-02-22T11:09:46.284Z,25.80
2019-02-22T11:10:49.921Z,24.60
2019-02-22T11:11:54.923Z,28.23
2019-02-22T11:12:59.349Z,26.37
2019-02-22T11:14:03.015Z,26.97
2019-02-22T11:15:09.164Z,25.03
2019-02-22T11:16:12.730Z,24.93
2019-02-22T11:17:16.363Z,25.37
2019-02-22T11:18:19.999Z,24.80
2019-02-22T11:19:23.640Z,25.93
2019-02-22T11:20:27.314Z,24.07
2019-02-22T11:21:30.883Z,24.50
2019-02-22T11:22:34.520Z,27.70
2019-02-22T11:23:38.162Z,24.90
2019-02-22T11:24:41.795Z,26.53
2019-02-22T11:25:45.464Z,25.33
2019-02-22T11:26:49.102Z,24.63
2019-02-22T11:27:52.767Z,24.50
2019-02-22T11:28:56.407Z,23.50
2019-02-22T11:30:00.005Z,25.17
2019-02-22T11:31:03.642Z,25.37
2019-02-22T11:32:07.288Z,23.57
2019-02-22T11:33:10.929Z,24.23
2019-02-22T11:34:14.485Z,24.57
2019-02-22T11:35:18.144Z,23.80
2019-02-22T11:36:21.834Z,23.60
2019-02-22T11:37:25.474Z,24.30
2019-02-22T11:38:29.182Z,23.77
2019-02-22T11:39:32.827Z,28.40
2019-02-22T11:40:36.489Z,24.83
2019-02-22T11:41:40.050Z,26.53
2019-02-22T11:42:43.681Z,25.77
2019-02-22T11:43:47.319Z,25.50
2019-02-22T11:44:50.958Z,22.07
2019-02-22T11:45:54.631Z,21.70
2019-02-22T11:46:58.252Z,21.73
2019-02-22T11:48:09.050Z,20.83
2019-02-22T11:49:07.272Z,22.37
2019-02-22T11:50:12.207Z,23.47
2019-02-22T11:51:15.890Z,23.17
2019-02-22T11:52:19.520Z,22.47
2019-02-22T11:53:23.155Z,21.57
2019-02-22T11:54:26.834Z,21.80
2019-02-22T11:55:31.523Z,21.47
2019-02-22T11:56:35.286Z,20.50
2019-02-22T11:57:38.903Z,21.93
2019-02-22T11:58:42.535Z,23.07
2019-02-22T11:59:46.222Z,23.00
2019-02-22T12:00:49.863Z,20.77
2019-02-22T12:01:53.533Z,19.17
2019-02-22T12:02:57.238Z,19.50
2019-02-22T12:04:00.878Z,20.57
2019-02-22T12:05:08.038Z,20.03
2019-02-22T12:06:11.675Z,20.93
2019-02-22T12:07:15.349Z,28.50
2019-02-22T12:08:18.996Z,33.80
2019-02-22T12:09:22.779Z,30.77
2019-02-22T12:10:26.411Z,23.77
2019-02-22T12:11:30.041Z,27.33
2019-02-22T12:12:34.655Z,25.50
2019-02-22T12:13:38.398Z,25.07
2019-02-22T12:14:51.045Z,42.33
2019-02-22T12:15:47.393Z,33.53
2019-02-22T12:16:51.037Z,25.90
2019-02-22T12:17:54.654Z,26.33
2019-02-22T12:18:58.289Z,26.27
2019-02-22T12:20:01.952Z,25.07
2019-02-22T12:21:05.592Z,25.00
2019-02-22T12:22:09.236Z,23.57
2019-02-22T12:23:13.961Z,23.47
2019-02-22T12:24:17.654Z,22.07
2019-02-22T12:25:21.300Z,23.13
2019-02-22T12:26:24.944Z,23.23
2019-02-22T12:27:28.581Z,22.90
2019-02-22T12:28:32.270Z,35.17
2019-02-22T12:29:35.901Z,32.50
2019-02-22T12:30:39.532Z,30.63
2019-02-22T12:31:43.166Z,31.40
2019-02-22T12:32:47.130Z,34.20
2019-02-22T12:33:50.876Z,34.87
2019-02-22T12:34:54.445Z,37.57
2019-02-22T12:35:58.082Z,41.10
2019-02-22T12:37:01.643Z,43.70
2019-02-22T12:38:05.276Z,40.87
2019-02-22T12:39:09.341Z,40.30
2019-02-22T12:40:13.275Z,41.43
2019-02-22T12:41:16.911Z,40.00
2019-02-22T12:42:20.541Z,41.17
2019-02-22T12:43:24.277Z,47.53
2019-02-22T12:44:27.868Z,42.00
2019-02-22T12:45:31.427Z,38.97
2019-02-22T12:46:35.069Z,41.63
2019-02-22T12:47:38.642Z,41.43
2019-02-22T12:48:42.197Z,40.87
2019-02-22T12:49:46.131Z,40.87
2019-02-22T12:50:49.845Z,38.77
2019-02-22T12:51:53.414Z,36.40
2019-02-22T12:52:57.047Z,34.73
2019-02-22T12:54:00.981Z,32.43
2019-02-22T12:55:06.462Z,31.10
2019-02-22T12:56:10.093Z,31.50
2019-02-22T12:57:13.722Z,31.40
2019-02-22T12:58:17.474Z,31.97
2019-02-22T12:59:21.108Z,34.23
2019-02-22T13:00:24.769Z,32.87
2019-02-22T13:01:28.419Z,35.27
2019-02-22T13:02:31.981Z,35.30
2019-02-22T13:03:36.282Z,38.90
2019-02-22T13:04:39.926Z,39.00
2019-02-22T13:05:43.662Z,40.80
2019-02-22T13:06:47.289Z,40.40
2019-02-22T13:07:52.688Z,41.00
2019-02-22T13:08:56.362Z,38.20
2019-02-22T13:10:00.001Z,34.00
2019-02-22T13:11:03.670Z,31.23
2019-02-22T13:12:13.904Z,31.83
2019-02-22T13:13:12.674Z,34.57
2019-02-22T13:14:16.342Z,34.23
2019-02-22T13:15:19.915Z,36.63
2019-02-22T13:16:23.572Z,37.77
2019-02-22T13:17:30.759Z,38.47
2019-02-22T13:18:32.492Z,37.10
2019-02-22T13:19:37.173Z,38.43
2019-02-22T13:20:40.687Z,39.80
2019-02-22T13:21:44.361Z,42.27
2019-02-22T13:22:47.930Z,39.40
2019-02-22T13:23:51.493Z,40.50
2019-02-22T13:24:55.126Z,43.53
2019-02-22T13:25:59.152Z,39.23
2019-02-22T13:27:02.931Z,38.13
2019-02-22T13:28:06.561Z,39.40
2019-02-22T13:29:10.192Z,39.23
2019-02-22T13:30:15.369Z,39.13
2019-02-22T13:31:29.392Z,36.67
2019-02-22T13:32:24.476Z,37.90
2019-02-22T13:33:28.105Z,41.87
2019-02-22T13:34:31.741Z,41.63
2019-02-22T13:35:35.400Z,42.77
2019-02-22T13:36:39.042Z,41.73
2019-02-22T13:37:42.712Z,40.20
2019-02-22T13:38:46.345Z,44.23
2019-02-22T13:39:49.977Z,44.83
2019-02-22T13:40:53.653Z,41.47
2019-02-22T13:42:02.428Z,42.53
2019-02-22T13:43:06.207Z,40.03